Ana Sayfa
METAR-TAF:

METAR-TAF

Havaalanları :

Tekamah Municipal Airport

Tekamah, Nebraska, Amerika Birleşik Devletleri

Enlem: 41-46-01N, Boylam: 096-10-40W, yükseklik: 313 m

Güncel hava durumu gözlemi

Rapor saat 12:54 UTC de 28 dakika önce yapıldı.
Rüzgar güneydan 15 kt
Sıcaklık 24°C
Nem 74%
Basınç 1005 hPa
Görüş mesafesi: 16.1 km
Açık gökyüzü

METAR: KTQE 161254Z AUTO 19015KT 10SM CLR 24/19 A2969 RMK AO2 SLP040 T02440189

Saat: 08:22 (13:22 UTC)


TAF: eksik

4.000'den fazla havaalanı için hava durumu gözlemleri ve tahminleri (METAR ve TAF raporları).

Kullanılabilir istasyonlar harita üzerinde sarı ve kırmızı noktalarla gösterilir.

İstasyonun adını görmek için fareyi noktanın üzerinde gezdirin.

Sonrasında hava gözlem ve tahminlerini görmek için tıklayın.

Haritayı değiştirmek için: yaklaştırmak için siyah artı işaretli yeşil düğmeye ve uzaklaştırmak için de eksi işaretli düğmeye hızla tıklayın; bitişik haritalar için yeşil okları kullanın.


METAR-TAF: